Corona, SD (57227)

8:52 PM CDT on September 17, 2014 (GMT -0500)
Linden Beach | Change Station
CLOSE
Current Station
Personal Weather Station
Location: Corona, SD
Elevation: 974 ft
Nearby Weather Stations

Elev 974 ft 45.41 °N, 96.65 °W | Updated 1 second ago

Clear
Clear
59.5 °F
Feels Like 59.5 °F
N
0.0
Wind Variable Wind from SSW
Gusts 0.0 mph

Today
High -- | Low -- °F
--% Chance of Precip.
Yesterday
High -- | Low -- °F
Precip. -- in
7:07 AM 7:33 PM
Waning Crescent, 31% visible
Pressure 29.97 in
Visibility 10.0 miles
Clouds Clear
Dew Point 57 °F
Humidity 91%
Rainfall 0.00 in
Snow Depth 0 in
UV 0 out of 12
Pollen 2.90 out of 12
Air Quality Not available.
Flu Activity Not available.
METAR KVVV 180134Z AUTO 00000KT 10SM CLR 17/11 A2997 RMK AO2

More Conditions Fewer Conditions

Pressure 29.97 in
Visibility 10.0 miles
Clouds Clear
Dew Point 57 °F
Humidity 91%
Rainfall 0.00 in
Snow Depth 0 in
UV 0 out of 12
Pollen 2.90 out of 12
Air Quality Not available.
Flu Activity Not available.
METAR KVVV 180134Z AUTO 00000KT 10SM CLR 17/11 A2997 RMK AO2

More Conditions Fewer Conditions

10-Day Weather Forecast

Almanac

Astronomy

Sep. 17, 2014 Rise Set
Actual Time 7:07 AM CDT 7:33 PM CDT
Civil Twilight 6:38 AM CDT 8:03 PM CDT
Nautical Twilight 6:02 AM CDT 8:38 PM CDT
Astronomical Twilight 5:26 AM CDT 9:14 PM CDT
Moon 12:56 AM CDT (9/17) 3:55 PM CDT (9/17)
Length of Visible Light 13h 25m
Length of Day
12h 26m
Tomorrow will be 3m 9s shorter.
Waning Crescent, 31% of the Moon is Illuminated
Today
Waning Crescent
Sep 24
New
Oct 1
First Quarter
Oct 8
Full
Oct 15
Last Quarter

Today's Extremes

State Highs State Lows

Community

WunderPhotos

Upload Photos

1,754,261 photos uploaded!

Nearby

Snow Depth

Station Depth Elevation
Blind Park 0 in 6890 ft

Earthquake Activity

City Distance Mag. Time & Date
No recent earthquake activity has been reported nearby.
Minimum magnitude displayed is 2.5.

Coastal Water Temperatures

Place Temperature
No Stations Reporting

Nearby Weather Stations